createdAt,value
2019-05-17T00:03:37.449Z,56.81
2019-05-17T00:08:38.740Z,57.23
2019-05-17T00:13:40.141Z,57.42
2019-05-17T00:18:42.161Z,57.80
2019-05-17T00:23:43.455Z,57.71
2019-05-17T00:28:46.784Z,57.70
2019-05-17T00:33:47.094Z,57.58
2019-05-17T00:38:50.944Z,57.57
2019-05-17T00:43:48.921Z,57.75
2019-05-17T00:48:50.273Z,58.02
2019-05-17T00:53:51.669Z,58.37
2019-05-17T00:58:53.815Z,58.68
2019-05-17T01:03:57.075Z,58.95
2019-05-17T01:09:01.845Z,58.55
2019-05-17T01:13:58.830Z,58.78
2019-05-17T01:19:00.169Z,59.11
2019-05-17T01:24:01.550Z,59.86
2019-05-17T01:29:02.908Z,60.21
2019-05-17T01:34:04.281Z,59.33
2019-05-17T01:39:17.013Z,59.01
2019-05-17T01:44:07.485Z,59.30
2019-05-17T01:49:08.512Z,59.30
2019-05-17T01:54:09.815Z,59.59
2019-05-17T01:59:11.128Z,59.33
2019-05-17T02:04:13.361Z,59.01
2019-05-17T02:09:20.618Z,58.91
2019-05-17T02:14:16.661Z,58.85
2019-05-17T02:19:17.565Z,58.97
2019-05-17T02:24:18.946Z,59.24
2019-05-17T02:29:21.431Z,59.35
2019-05-17T02:34:23.219Z,59.98
2019-05-17T02:39:23.479Z,60.19
2019-05-17T02:44:24.604Z,60.14
2019-05-17T02:49:26.012Z,59.78
2019-05-17T02:54:28.143Z,59.49
2019-05-17T02:59:32.798Z,59.77
2019-05-17T03:04:32.705Z,60.02
2019-05-17T03:09:33.524Z,60.28
2019-05-17T03:14:33.861Z,60.40
2019-05-17T03:19:35.897Z,60.20
2019-05-17T03:24:37.309Z,60.35
2019-05-17T03:29:42.338Z,60.18
2019-05-17T03:34:44.927Z,59.99
2019-05-17T03:39:43.021Z,59.29
2019-05-17T03:44:44.460Z,59.16
2019-05-17T03:49:45.831Z,59.62
2019-05-17T03:54:47.161Z,59.29
2019-05-17T03:59:48.566Z,59.45
2019-05-17T04:04:52.665Z,59.38
2019-05-17T04:09:53.194Z,59.42
2019-05-17T04:14:53.543Z,59.64
2019-05-17T04:19:54.998Z,59.50
2019-05-17T04:24:57.252Z,59.11
2019-05-17T04:29:58.994Z,58.71
2019-05-17T04:35:03.874Z,58.55
2019-05-17T04:40:05.261Z,58.55
2019-05-17T04:45:07.087Z,58.46
2019-05-17T04:50:12.945Z,58.63
2019-05-17T04:55:13.324Z,59.17
2019-05-17T05:00:13.277Z,59.63
2019-05-17T05:05:15.188Z,59.83
2019-05-17T05:10:22.546Z,59.73
2019-05-17T05:15:34.907Z,59.72
2019-05-17T05:20:37.094Z,59.52
2019-05-17T05:25:38.883Z,59.19
2019-05-17T05:30:42.214Z,59.27
2019-05-17T05:35:43.000Z,59.08
2019-05-17T05:40:45.384Z,59.92
2019-05-17T05:45:47.372Z,59.41
2019-05-17T05:50:49.144Z,59.15
2019-05-17T05:55:51.834Z,59.58
2019-05-17T06:00:54.066Z,58.74
2019-05-17T06:05:57.685Z,57.80
2019-05-17T06:11:02.277Z,57.33
2019-05-17T06:16:02.975Z,56.92
2019-05-17T06:21:04.638Z,57.35
2019-05-17T06:26:06.381Z,57.24
2019-05-17T06:31:08.054Z,56.82
2019-05-17T06:36:13.507Z,56.16
2019-05-17T06:41:14.613Z,55.89
2019-05-17T06:46:17.408Z,55.92
2019-05-17T06:51:21.943Z,55.41
2019-05-17T06:56:22.963Z,54.80
2019-05-17T07:01:23.417Z,55.24
2019-05-17T07:06:25.022Z,54.72
2019-05-17T07:11:27.061Z,54.73
2019-05-17T07:16:30.058Z,54.69
2019-05-17T07:21:30.560Z,54.44
2019-05-17T07:26:33.835Z,53.45
2019-05-17T07:31:35.876Z,53.07
2019-05-17T07:36:41.216Z,52.84
2019-05-17T07:41:43.818Z,52.82
2019-05-17T07:46:51.695Z,52.66
2019-05-17T07:51:50.280Z,52.13
2019-05-17T07:56:52.820Z,52.35
2019-05-17T08:01:55.523Z,51.02
2019-05-17T08:06:59.829Z,52.06
2019-05-17T08:12:00.253Z,51.46
2019-05-17T08:17:02.557Z,51.19
2019-05-17T08:22:04.951Z,50.23
2019-05-17T08:27:07.034Z,49.79
2019-05-17T08:32:09.600Z,50.44
2019-05-17T08:37:11.015Z,49.87
2019-05-17T08:42:13.823Z,48.98
2019-05-17T08:47:16.820Z,49.65
2019-05-17T08:52:20.051Z,48.75
2019-05-17T08:57:21.494Z,47.79
2019-05-17T09:02:24.634Z,48.69
2019-05-17T09:07:26.887Z,47.71
2019-05-17T09:12:30.155Z,48.85
2019-05-17T09:17:32.217Z,47.77
2019-05-17T09:22:34.822Z,47.76
2019-05-17T09:27:36.600Z,48.13
2019-05-17T09:32:40.509Z,47.75
2019-05-17T09:37:41.700Z,47.81
2019-05-17T09:42:44.334Z,46.93
2019-05-17T09:47:50.344Z,46.85
2019-05-17T09:52:50.340Z,46.65
2019-05-17T09:57:55.030Z,45.88
2019-05-17T10:03:00.173Z,46.50
2019-05-17T10:08:01.930Z,46.47
2019-05-17T10:13:09.548Z,46.08
2019-05-17T10:18:11.348Z,45.30
2019-05-17T10:23:19.516Z,45.49
2019-05-17T10:28:20.479Z,43.52
2019-05-17T10:33:23.845Z,45.06
2019-05-17T10:38:29.954Z,44.77
2019-05-17T10:43:30.537Z,45.08
2019-05-17T10:48:32.978Z,44.68
2019-05-17T10:53:34.709Z,44.16
2019-05-17T10:58:36.844Z,44.42
2019-05-17T11:03:39.870Z,43.64
2019-05-17T11:08:42.020Z,43.67
2019-05-17T11:13:44.490Z,43.00
2019-05-17T11:18:46.278Z,43.13
2019-05-17T11:23:48.671Z,42.21
2019-05-17T11:28:51.427Z,41.01
2019-05-17T11:33:53.386Z,42.28
2019-05-17T11:38:55.261Z,42.44
2019-05-17T11:43:58.109Z,41.75
2019-05-17T11:49:00.906Z,40.53
2019-05-17T11:54:03.955Z,41.23
2019-05-17T11:59:06.205Z,39.82
2019-05-17T12:04:08.131Z,39.07
2019-05-17T12:09:10.295Z,39.67
2019-05-17T12:14:12.593Z,39.53
2019-05-17T12:19:14.698Z,38.80
2019-05-17T12:24:18.070Z,37.10
2019-05-17T12:29:20.179Z,36.87
2019-05-17T12:34:22.536Z,36.97
2019-05-17T12:39:24.629Z,36.36
2019-05-17T12:44:27.792Z,34.83
2019-05-17T12:49:31.520Z,35.20
2019-05-17T12:59:47.661Z,34.28
2019-05-17T13:04:49.667Z,33.00
2019-05-17T13:09:51.361Z,33.08
2019-05-17T13:14:53.328Z,31.93
2019-05-17T13:19:55.340Z,30.76
2019-05-17T13:24:57.423Z,31.41
2019-05-17T13:29:59.322Z,30.57
2019-05-17T13:35:05.514Z,30.41
2019-05-17T13:40:07.577Z,29.21
2019-05-17T13:45:09.586Z,29.53
2019-05-17T13:50:12.131Z,28.36
2019-05-17T13:55:14.195Z,29.46
2019-05-17T14:00:16.494Z,29.68
2019-05-17T14:05:17.901Z,29.66
2019-05-17T14:10:27.845Z,30.19
2019-05-17T14:15:22.115Z,30.45
2019-05-17T14:20:23.556Z,30.69
2019-05-17T14:25:25.211Z,29.53
2019-05-17T14:30:26.902Z,28.83
2019-05-17T14:35:28.698Z,27.80
2019-05-17T14:41:04.301Z,28.98
2019-05-17T14:45:32.282Z,29.62
2019-05-17T14:50:34.349Z,28.28
2019-05-17T14:55:43.938Z,27.18
2019-05-17T15:00:45.893Z,25.57
2019-05-17T15:05:47.740Z,25.52
2019-05-17T15:10:51.083Z,25.32
2019-05-17T15:16:33.067Z,24.68
2019-05-17T15:21:34.427Z,24.72
2019-05-17T15:26:38.675Z,25.06
2019-05-17T15:31:40.510Z,25.27
2019-05-17T15:36:42.403Z,25.57
2019-05-17T15:41:44.233Z,25.70
2019-05-17T15:46:45.785Z,25.88
2019-05-17T15:51:47.478Z,26.29
2019-05-17T15:56:50.198Z,26.83
2019-05-17T16:01:52.026Z,27.29
2019-05-17T16:06:53.687Z,27.24
2019-05-17T16:11:55.246Z,27.33
2019-05-17T16:16:57.034Z,27.35
2019-05-17T16:21:59.066Z,27.45
2019-05-17T16:27:00.959Z,28.17
2019-05-17T16:32:02.726Z,27.62
2019-05-17T16:37:04.621Z,27.48
2019-05-17T16:42:06.397Z,27.62
2019-05-17T16:47:08.577Z,27.82
2019-05-17T16:52:10.484Z,27.78
2019-05-17T16:57:12.402Z,27.83
2019-05-17T17:02:14.440Z,28.56
2019-05-17T17:07:16.015Z,28.44
2019-05-17T17:12:20.811Z,28.48
2019-05-17T17:17:22.926Z,28.15
2019-05-17T17:22:25.250Z,27.96
2019-05-17T17:27:27.794Z,28.34
2019-05-17T17:32:29.775Z,28.49
2019-05-17T17:37:34.538Z,29.07
2019-05-17T17:42:39.613Z,29.36
2019-05-17T17:47:43.052Z,29.38
2019-05-17T17:52:45.510Z,29.54
2019-05-17T17:57:48.705Z,30.19
2019-05-17T18:02:51.517Z,30.08
2019-05-17T18:07:54.104Z,30.57
2019-05-17T18:12:57.644Z,31.15
2019-05-17T18:17:59.724Z,31.21
2019-05-17T18:23:03.013Z,31.26
2019-05-17T18:28:05.814Z,31.54
2019-05-17T18:33:08.705Z,31.65
2019-05-17T18:38:10.755Z,31.85
2019-05-17T18:43:12.913Z,32.31
2019-05-17T18:48:14.933Z,32.52
2019-05-17T18:53:18.914Z,32.98
2019-05-17T18:58:25.582Z,33.15
2019-05-17T19:03:29.372Z,33.67
2019-05-17T19:08:32.931Z,33.72
2019-05-17T19:13:35.314Z,34.13
2019-05-17T19:18:39.615Z,34.12
2019-05-17T19:23:42.128Z,34.40
2019-05-17T19:28:47.196Z,34.78
2019-05-17T19:33:50.186Z,34.97
2019-05-17T19:38:54.221Z,35.34
2019-05-17T19:43:57.634Z,35.58
2019-05-17T19:48:59.567Z,36.06
2019-05-17T19:54:01.780Z,36.29
2019-05-17T19:59:04.831Z,36.77
2019-05-17T20:04:08.655Z,36.83
2019-05-17T20:09:11.417Z,36.93
2019-05-17T20:14:15.650Z,37.10
2019-05-17T20:19:18.138Z,37.61
2019-05-17T20:24:21.244Z,37.67
2019-05-17T20:29:24.854Z,37.91
2019-05-17T20:34:28.371Z,38.16
2019-05-17T20:44:51.685Z,38.83
2019-05-17T20:49:56.370Z,39.15
2019-05-17T20:55:01.248Z,39.39
2019-05-17T21:00:16.789Z,39.41
2019-05-17T21:05:26.535Z,39.50
2019-05-17T21:10:28.691Z,40.83
2019-05-17T21:15:30.128Z,40.33
2019-05-17T21:20:31.460Z,40.44
2019-05-17T21:25:32.860Z,40.40
2019-05-17T21:30:36.020Z,40.96
2019-05-17T21:35:43.411Z,42.55
2019-05-17T21:40:49.398Z,43.67
2019-05-17T21:51:18.254Z,44.63
2019-05-17T21:56:23.381Z,44.47
2019-05-17T22:01:28.934Z,45.17
2019-05-17T22:06:37.442Z,45.73
2019-05-17T22:11:40.990Z,45.56
2019-05-17T22:16:45.347Z,46.35
2019-05-17T22:21:47.626Z,44.89
2019-05-17T22:26:53.411Z,44.75
2019-05-17T22:32:02.110Z,45.42
2019-05-17T22:37:05.960Z,45.40
2019-05-17T22:42:08.561Z,45.88
2019-05-17T22:47:12.023Z,46.80
2019-05-17T22:52:14.317Z,45.96
2019-05-17T22:57:16.214Z,46.46
2019-05-17T23:02:19.531Z,46.24
2019-05-17T23:07:22.648Z,46.48
2019-05-17T23:17:38.328Z,46.12
2019-05-17T23:22:41.026Z,47.23
2019-05-17T23:27:43.774Z,47.25
2019-05-17T23:32:47.784Z,48.43
2019-05-17T23:37:53.954Z,48.08
2019-05-17T23:43:02.502Z,49.11
2019-05-17T23:48:07.288Z,48.42
2019-05-17T23:53:13.781Z,48.46
2019-05-17T23:58:24.125Z,47.74
